sensor_id;sensor_type;location;lat;lon;timestamp;P1;durP1;ratioP1;P2;durP2;ratioP2
37527;SDS011;23372;52.050;4.810;2023-04-01T00:00:30;25.83;;;10.33;;
37527;SDS011;23372;52.050;4.810;2023-04-01T00:02:55;38.07;;;13.93;;
37527;SDS011;23372;52.050;4.810;2023-04-01T00:05:21;31.87;;;9.87;;
37527;SDS011;23372;52.050;4.810;2023-04-01T00:07:49;27.60;;;10.53;;
37527;SDS011;23372;52.050;4.810;2023-04-01T00:10:15;33.20;;;9.90;;
37527;SDS011;23372;52.050;4.810;2023-04-01T00:12:40;36.13;;;11.27;;
37527;SDS011;23372;52.050;4.810;2023-04-01T00:15:07;31.13;;;10.77;;
37527;SDS011;23372;52.050;4.810;2023-04-01T00:17:35;33.37;;;11.67;;
37527;SDS011;23372;52.050;4.810;2023-04-01T00:20:00;24.90;;;9.10;;
37527;SDS011;23372;52.050;4.810;2023-04-01T00:22:27;40.80;;;11.93;;
37527;SDS011;23372;52.050;4.810;2023-04-01T00:24:53;33.83;;;9.97;;
37527;SDS011;23372;52.050;4.810;2023-04-01T00:27:19;33.43;;;10.63;;
37527;SDS011;23372;52.050;4.810;2023-04-01T00:29:45;26.73;;;9.00;;
37527;SDS011;23372;52.050;4.810;2023-04-01T00:32:12;36.70;;;9.63;;
37527;SDS011;23372;52.050;4.810;2023-04-01T00:34:39;35.80;;;11.17;;
37527;SDS011;23372;52.050;4.810;2023-04-01T00:37:06;28.10;;;9.27;;
37527;SDS011;23372;52.050;4.810;2023-04-01T00:39:32;32.40;;;8.60;;
37527;SDS011;23372;52.050;4.810;2023-04-01T00:41:59;36.20;;;7.77;;
37527;SDS011;23372;52.050;4.810;2023-04-01T00:44:26;30.40;;;8.03;;
37527;SDS011;23372;52.050;4.810;2023-04-01T00:46:54;23.47;;;6.70;;
37527;SDS011;23372;52.050;4.810;2023-04-01T00:49:22;40.90;;;9.23;;
37527;SDS011;23372;52.050;4.810;2023-04-01T00:51:52;35.03;;;9.00;;
37527;SDS011;23372;52.050;4.810;2023-04-01T00:54:20;30.93;;;9.13;;
37527;SDS011;23372;52.050;4.810;2023-04-01T00:59:25;27.90;;;8.43;;
37527;SDS011;23372;52.050;4.810;2023-04-01T01:01:56;37.60;;;8.87;;
37527;SDS011;23372;52.050;4.810;2023-04-01T01:04:23;29.47;;;9.47;;
37527;SDS011;23372;52.050;4.810;2023-04-01T01:07:05;23.53;;;7.60;;
37527;SDS011;23372;52.050;4.810;2023-04-01T01:15:21;30.93;;;9.07;;
37527;SDS011;23372;52.050;4.810;2023-04-01T01:29:05;20.87;;;6.83;;
37527;SDS011;23372;52.050;4.810;2023-04-01T01:31:34;24.00;;;7.13;;
37527;SDS011;23372;52.050;4.810;2023-04-01T01:36:57;17.10;;;5.87;;
37527;SDS011;23372;52.050;4.810;2023-04-01T01:39:30;21.20;;;5.23;;
37527;SDS011;23372;52.050;4.810;2023-04-01T01:41:58;23.33;;;5.43;;
37527;SDS011;23372;52.050;4.810;2023-04-01T01:44:29;17.13;;;4.50;;
37527;SDS011;23372;52.050;4.810;2023-04-01T01:46:57;20.27;;;6.73;;
37527;SDS011;23372;52.050;4.810;2023-04-01T01:49:25;17.97;;;6.33;;
37527;SDS011;23372;52.050;4.810;2023-04-01T01:51:52;26.30;;;7.90;;
37527;SDS011;23372;52.050;4.810;2023-04-01T01:54:18;17.17;;;6.70;;
37527;SDS011;23372;52.050;4.810;2023-04-01T01:56:45;23.23;;;7.07;;
37527;SDS011;23372;52.050;4.810;2023-04-01T01:59:13;23.73;;;6.63;;
37527;SDS011;23372;52.050;4.810;2023-04-01T02:01:41;21.13;;;7.23;;
37527;SDS011;23372;52.050;4.810;2023-04-01T02:04:10;22.17;;;7.17;;
37527;SDS011;23372;52.050;4.810;2023-04-01T02:06:38;22.97;;;6.97;;
37527;SDS011;23372;52.050;4.810;2023-04-01T02:09:08;25.63;;;7.90;;
37527;SDS011;23372;52.050;4.810;2023-04-01T02:11:43;23.83;;;7.93;;
37527;SDS011;23372;52.050;4.810;2023-04-01T02:14:52;24.93;;;8.20;;
37527;SDS011;23372;52.050;4.810;2023-04-01T02:17:23;22.60;;;7.97;;
37527;SDS011;23372;52.050;4.810;2023-04-01T02:20:13;21.03;;;6.27;;
37527;SDS011;23372;52.050;4.810;2023-04-01T02:22:43;19.63;;;7.57;;
37527;SDS011;23372;52.050;4.810;2023-04-01T02:25:14;20.33;;;7.27;;
37527;SDS011;23372;52.050;4.810;2023-04-01T02:27:42;24.17;;;7.87;;
37527;SDS011;23372;52.050;4.810;2023-04-01T02:30:09;18.00;;;7.13;;
37527;SDS011;23372;52.050;4.810;2023-04-01T02:32:37;16.07;;;6.67;;
37527;SDS011;23372;52.050;4.810;2023-04-01T02:35:05;23.63;;;7.47;;
37527;SDS011;23372;52.050;4.810;2023-04-01T02:37:33;18.70;;;8.00;;
37527;SDS011;23372;52.050;4.810;2023-04-01T02:39:59;17.80;;;7.63;;
37527;SDS011;23372;52.050;4.810;2023-04-01T02:42:31;20.70;;;6.63;;
37527;SDS011;23372;52.050;4.810;2023-04-01T02:44:57;21.27;;;7.50;;
37527;SDS011;23372;52.050;4.810;2023-04-01T02:47:22;20.00;;;7.83;;
37527;SDS011;23372;52.050;4.810;2023-04-01T02:49:48;21.03;;;8.37;;
37527;SDS011;23372;52.050;4.810;2023-04-01T02:52:13;17.37;;;8.77;;
37527;SDS011;23372;52.050;4.810;2023-04-01T02:54:39;24.33;;;10.53;;
37527;SDS011;23372;52.050;4.810;2023-04-01T02:57:05;30.03;;;11.53;;
37527;SDS011;23372;52.050;4.810;2023-04-01T02:59:31;31.60;;;12.73;;
37527;SDS011;23372;52.050;4.810;2023-04-01T03:01:56;32.57;;;12.53;;
37527;SDS011;23372;52.050;4.810;2023-04-01T03:04:22;30.43;;;12.97;;
37527;SDS011;23372;52.050;4.810;2023-04-01T03:06:47;37.27;;;12.60;;
37527;SDS011;23372;52.050;4.810;2023-04-01T03:09:13;31.77;;;13.10;;
37527;SDS011;23372;52.050;4.810;2023-04-01T03:11:39;43.13;;;15.63;;
37527;SDS011;23372;52.050;4.810;2023-04-01T03:14:05;41.43;;;14.73;;
37527;SDS011;23372;52.050;4.810;2023-04-01T03:16:31;36.77;;;13.50;;
37527;SDS011;23372;52.050;4.810;2023-04-01T03:18:57;38.53;;;14.77;;
37527;SDS011;23372;52.050;4.810;2023-04-01T03:21:25;37.37;;;13.10;;
37527;SDS011;23372;52.050;4.810;2023-04-01T03:23:51;36.73;;;14.87;;
37527;SDS011;23372;52.050;4.810;2023-04-01T03:26:17;34.30;;;14.17;;
37527;SDS011;23372;52.050;4.810;2023-04-01T03:28:43;24.80;;;11.17;;
37527;SDS011;23372;52.050;4.810;2023-04-01T03:31:09;38.67;;;13.20;;
37527;SDS011;23372;52.050;4.810;2023-04-01T03:33:34;23.13;;;10.23;;
37527;SDS011;23372;52.050;4.810;2023-04-01T03:36:00;25.30;;;10.40;;
37527;SDS011;23372;52.050;4.810;2023-04-01T03:38:26;20.53;;;10.67;;
37527;SDS011;23372;52.050;4.810;2023-04-01T03:40:51;23.63;;;9.47;;
37527;SDS011;23372;52.050;4.810;2023-04-01T03:43:17;22.17;;;10.83;;
37527;SDS011;23372;52.050;4.810;2023-04-01T03:45:46;22.67;;;10.50;;
37527;SDS011;23372;52.050;4.810;2023-04-01T03:48:14;25.23;;;10.67;;
37527;SDS011;23372;52.050;4.810;2023-04-01T03:50:40;21.27;;;10.13;;
37527;SDS011;23372;52.050;4.810;2023-04-01T03:53:06;27.07;;;12.00;;
37527;SDS011;23372;52.050;4.810;2023-04-01T03:55:32;31.67;;;12.17;;
37527;SDS011;23372;52.050;4.810;2023-04-01T03:57:57;28.23;;;11.60;;
37527;SDS011;23372;52.050;4.810;2023-04-01T04:00:24;35.97;;;14.60;;
37527;SDS011;23372;52.050;4.810;2023-04-01T04:02:50;32.60;;;14.30;;
37527;SDS011;23372;52.050;4.810;2023-04-01T04:05:15;35.87;;;14.40;;
37527;SDS011;23372;52.050;4.810;2023-04-01T04:07:41;32.33;;;12.67;;
37527;SDS011;23372;52.050;4.810;2023-04-01T04:10:06;32.93;;;14.23;;
37527;SDS011;23372;52.050;4.810;2023-04-01T04:12:32;33.07;;;13.97;;
37527;SDS011;23372;52.050;4.810;2023-04-01T04:14:58;40.73;;;15.10;;
37527;SDS011;23372;52.050;4.810;2023-04-01T04:17:23;35.53;;;14.93;;
37527;SDS011;23372;52.050;4.810;2023-04-01T04:19:49;33.47;;;14.57;;
37527;SDS011;23372;52.050;4.810;2023-04-01T04:22:14;33.57;;;14.60;;
37527;SDS011;23372;52.050;4.810;2023-04-01T04:24:40;38.10;;;15.30;;
37527;SDS011;23372;52.050;4.810;2023-04-01T04:27:06;34.47;;;15.13;;
37527;SDS011;23372;52.050;4.810;2023-04-01T04:29:31;37.50;;;15.70;;
37527;SDS011;23372;52.050;4.810;2023-04-01T04:31:57;31.23;;;13.30;;
37527;SDS011;23372;52.050;4.810;2023-04-01T04:34:22;39.07;;;13.63;;
37527;SDS011;23372;52.050;4.810;2023-04-01T04:36:48;32.07;;;13.53;;
37527;SDS011;23372;52.050;4.810;2023-04-01T04:39:14;31.33;;;13.93;;
37527;SDS011;23372;52.050;4.810;2023-04-01T04:41:40;33.57;;;14.27;;
37527;SDS011;23372;52.050;4.810;2023-04-01T04:44:06;35.60;;;14.73;;
37527;SDS011;23372;52.050;4.810;2023-04-01T04:46:32;31.00;;;13.70;;
37527;SDS011;23372;52.050;4.810;2023-04-01T04:48:58;30.30;;;13.70;;
37527;SDS011;23372;52.050;4.810;2023-04-01T04:51:24;31.77;;;13.63;;
37527;SDS011;23372;52.050;4.810;2023-04-01T04:53:49;27.07;;;11.57;;
37527;SDS011;23372;52.050;4.810;2023-04-01T04:56:19;24.43;;;12.03;;
37527;SDS011;23372;52.050;4.810;2023-04-01T04:58:45;27.30;;;12.97;;
37527;SDS011;23372;52.050;4.810;2023-04-01T05:01:12;28.50;;;13.37;;
37527;SDS011;23372;52.050;4.810;2023-04-01T05:03:39;29.17;;;13.00;;
37527;SDS011;23372;52.050;4.810;2023-04-01T05:06:05;32.00;;;13.03;;
37527;SDS011;23372;52.050;4.810;2023-04-01T05:08:32;32.20;;;14.63;;
37527;SDS011;23372;52.050;4.810;2023-04-01T05:10:58;31.47;;;14.00;;
37527;SDS011;23372;52.050;4.810;2023-04-01T05:13:24;34.10;;;13.03;;
37527;SDS011;23372;52.050;4.810;2023-04-01T05:15:50;31.70;;;12.57;;
37527;SDS011;23372;52.050;4.810;2023-04-01T05:18:15;38.63;;;14.03;;
37527;SDS011;23372;52.050;4.810;2023-04-01T05:20:48;43.47;;;16.57;;
37527;SDS011;23372;52.050;4.810;2023-04-01T05:23:15;43.30;;;15.90;;
37527;SDS011;23372;52.050;4.810;2023-04-01T05:25:42;51.80;;;16.60;;
37527;SDS011;23372;52.050;4.810;2023-04-01T05:28:08;47.43;;;16.00;;
37527;SDS011;23372;52.050;4.810;2023-04-01T05:30:33;41.23;;;15.10;;
37527;SDS011;23372;52.050;4.810;2023-04-01T05:32:59;37.60;;;14.47;;
37527;SDS011;23372;52.050;4.810;2023-04-01T05:35:25;45.50;;;16.03;;
37527;SDS011;23372;52.050;4.810;2023-04-01T05:37:50;36.23;;;14.97;;
37527;SDS011;23372;52.050;4.810;2023-04-01T05:40:16;31.43;;;14.17;;
37527;SDS011;23372;52.050;4.810;2023-04-01T05:42:42;35.23;;;13.60;;
37527;SDS011;23372;52.050;4.810;2023-04-01T05:45:07;32.53;;;13.50;;
37527;SDS011;23372;52.050;4.810;2023-04-01T05:47:33;34.03;;;14.17;;
37527;SDS011;23372;52.050;4.810;2023-04-01T05:49:59;34.20;;;14.20;;
37527;SDS011;23372;52.050;4.810;2023-04-01T05:52:25;30.93;;;14.40;;
37527;SDS011;23372;52.050;4.810;2023-04-01T05:54:50;42.90;;;14.50;;
37527;SDS011;23372;52.050;4.810;2023-04-01T05:57:16;35.53;;;14.40;;
37527;SDS011;23372;52.050;4.810;2023-04-01T05:59:41;42.33;;;14.77;;
37527;SDS011;23372;52.050;4.810;2023-04-01T06:02:08;36.20;;;12.53;;
37527;SDS011;23372;52.050;4.810;2023-04-01T06:04:37;40.17;;;14.17;;
37527;SDS011;23372;52.050;4.810;2023-04-01T06:07:10;34.40;;;13.60;;
37527;SDS011;23372;52.050;4.810;2023-04-01T06:09:38;38.33;;;14.57;;
37527;SDS011;23372;52.050;4.810;2023-04-01T06:15:11;39.93;;;14.67;;
37527;SDS011;23372;52.050;4.810;2023-04-01T06:18:26;33.23;;;12.93;;
37527;SDS011;23372;52.050;4.810;2023-04-01T06:23:24;29.70;;;13.53;;
37527;SDS011;23372;52.050;4.810;2023-04-01T06:40:03;46.17;;;16.87;;
37527;SDS011;23372;52.050;4.810;2023-04-01T06:51:52;43.07;;;19.27;;
37527;SDS011;23372;52.050;4.810;2023-04-01T06:54:13;52.50;;;18.30;;
37527;SDS011;23372;52.050;4.810;2023-04-01T06:56:53;48.30;;;18.50;;
37527;SDS011;23372;52.050;4.810;2023-04-01T06:59:25;47.77;;;19.37;;
37527;SDS011;23372;52.050;4.810;2023-04-01T07:01:53;40.43;;;17.33;;
37527;SDS011;23372;52.050;4.810;2023-04-01T07:04:35;56.53;;;19.07;;
37527;SDS011;23372;52.050;4.810;2023-04-01T07:07:05;50.30;;;19.73;;
37527;SDS011;23372;52.050;4.810;2023-04-01T07:09:49;44.07;;;19.77;;
37527;SDS011;23372;52.050;4.810;2023-04-01T07:12:40;46.60;;;19.67;;
37527;SDS011;23372;52.050;4.810;2023-04-01T07:17:43;47.93;;;19.37;;
37527;SDS011;23372;52.050;4.810;2023-04-01T07:20:15;56.03;;;20.57;;
37527;SDS011;23372;52.050;4.810;2023-04-01T07:22:51;48.87;;;19.73;;
37527;SDS011;23372;52.050;4.810;2023-04-01T07:25:23;46.80;;;17.20;;
37527;SDS011;23372;52.050;4.810;2023-04-01T07:27:52;41.73;;;18.47;;
37527;SDS011;23372;52.050;4.810;2023-04-01T07:30:22;51.07;;;19.23;;
37527;SDS011;23372;52.050;4.810;2023-04-01T07:35:49;41.73;;;17.03;;
37527;SDS011;23372;52.050;4.810;2023-04-01T07:38:34;42.03;;;16.50;;
37527;SDS011;23372;52.050;4.810;2023-04-01T07:44:06;39.67;;;16.20;;
37527;SDS011;23372;52.050;4.810;2023-04-01T07:46:50;40.90;;;17.60;;
37527;SDS011;23372;52.050;4.810;2023-04-01T07:49:39;45.23;;;16.53;;
37527;SDS011;23372;52.050;4.810;2023-04-01T07:52:57;40.37;;;16.37;;
37527;SDS011;23372;52.050;4.810;2023-04-01T07:55:23;35.93;;;13.83;;
37527;SDS011;23372;52.050;4.810;2023-04-01T08:06:24;34.27;;;14.03;;
37527;SDS011;23372;52.050;4.810;2023-04-01T08:09:10;37.27;;;15.97;;
37527;SDS011;23372;52.050;4.810;2023-04-01T08:14:15;35.20;;;13.60;;
37527;SDS011;23372;52.050;4.810;2023-04-01T08:19:28;39.47;;;14.93;;
37527;SDS011;23372;52.050;4.810;2023-04-01T08:22:02;31.13;;;12.57;;
37527;SDS011;23372;52.050;4.810;2023-04-01T08:24:41;33.60;;;12.67;;
37527;SDS011;23372;52.050;4.810;2023-04-01T08:27:18;30.17;;;13.10;;
37527;SDS011;23372;52.050;4.810;2023-04-01T08:32:55;32.10;;;13.87;;
37527;SDS011;23372;52.050;4.810;2023-04-01T08:35:34;29.53;;;12.87;;
37527;SDS011;23372;52.050;4.810;2023-04-01T08:38:11;29.97;;;11.97;;
37527;SDS011;23372;52.050;4.810;2023-04-01T08:40:57;34.43;;;13.10;;
37527;SDS011;23372;52.050;4.810;2023-04-01T08:49:01;26.07;;;13.50;;
37527;SDS011;23372;52.050;4.810;2023-04-01T08:54:33;27.20;;;13.40;;
37527;SDS011;23372;52.050;4.810;2023-04-01T09:16:18;26.93;;;11.70;;
37527;SDS011;23372;52.050;4.810;2023-04-01T09:21:37;21.40;;;10.63;;
37527;SDS011;23372;52.050;4.810;2023-04-01T09:49:50;24.10;;;10.53;;
37527;SDS011;23372;52.050;4.810;2023-04-01T09:55:06;21.43;;;10.40;;
37527;SDS011;23372;52.050;4.810;2023-04-01T10:08:49;8.87;;;5.70;;
37527;SDS011;23372;52.050;4.810;2023-04-01T10:16:55;8.00;;;4.90;;
37527;SDS011;23372;52.050;4.810;2023-04-01T10:19:55;12.73;;;4.73;;
37527;SDS011;23372;52.050;4.810;2023-04-01T10:25:27;11.97;;;6.30;;
37527;SDS011;23372;52.050;4.810;2023-04-01T10:33:53;11.70;;;5.50;;
37527;SDS011;23372;52.050;4.810;2023-04-01T10:36:56;9.87;;;5.17;;
37527;SDS011;23372;52.050;4.810;2023-04-01T10:39:32;13.23;;;6.57;;
37527;SDS011;23372;52.050;4.810;2023-04-01T11:07:17;20.43;;;10.67;;
37527;SDS011;23372;52.050;4.810;2023-04-01T11:15:40;18.63;;;9.00;;
37527;SDS011;23372;52.050;4.810;2023-04-01T11:21:44;18.20;;;8.93;;
37527;SDS011;23372;52.050;4.810;2023-04-01T11:27:18;18.43;;;9.07;;
37527;SDS011;23372;52.050;4.810;2023-04-01T11:35:27;15.00;;;9.43;;
37527;SDS011;23372;52.050;4.810;2023-04-01T11:43:38;15.97;;;9.73;;
37527;SDS011;23372;52.050;4.810;2023-04-01T11:46:19;18.10;;;9.87;;
37527;SDS011;23372;52.050;4.810;2023-04-01T11:57:42;21.63;;;11.40;;
37527;SDS011;23372;52.050;4.810;2023-04-01T12:05:52;21.23;;;10.03;;
37527;SDS011;23372;52.050;4.810;2023-04-01T12:08:44;16.47;;;10.00;;
37527;SDS011;23372;52.050;4.810;2023-04-01T12:11:33;14.90;;;8.10;;
37527;SDS011;23372;52.050;4.810;2023-04-01T12:22:09;20.97;;;10.83;;
37527;SDS011;23372;52.050;4.810;2023-04-01T12:25:50;17.00;;;10.63;;
37527;SDS011;23372;52.050;4.810;2023-04-01T12:30:47;19.27;;;10.20;;
37527;SDS011;23372;52.050;4.810;2023-04-01T12:33:24;22.53;;;11.50;;
37527;SDS011;23372;52.050;4.810;2023-04-01T12:41:47;20.03;;;12.63;;
37527;SDS011;23372;52.050;4.810;2023-04-01T12:44:32;22.63;;;13.37;;
37527;SDS011;23372;52.050;4.810;2023-04-01T12:50:11;24.67;;;13.03;;
37527;SDS011;23372;52.050;4.810;2023-04-01T13:11:46;26.80;;;11.70;;
37527;SDS011;23372;52.050;4.810;2023-04-01T13:22:30;20.40;;;10.50;;
37527;SDS011;23372;52.050;4.810;2023-04-01T13:25:24;24.80;;;11.20;;
37527;SDS011;23372;52.050;4.810;2023-04-01T13:36:32;30.03;;;12.60;;
37527;SDS011;23372;52.050;4.810;2023-04-01T13:42:42;20.83;;;10.60;;
37527;SDS011;23372;52.050;4.810;2023-04-01T13:45:26;17.50;;;10.63;;
37527;SDS011;23372;52.050;4.810;2023-04-01T13:51:13;20.40;;;10.33;;
37527;SDS011;23372;52.050;4.810;2023-04-01T13:56:57;14.83;;;8.13;;
37527;SDS011;23372;52.050;4.810;2023-04-01T13:59:44;12.83;;;7.57;;
37527;SDS011;23372;52.050;4.810;2023-04-01T14:07:50;15.40;;;8.13;;
37527;SDS011;23372;52.050;4.810;2023-04-01T14:10:40;17.52;;;9.00;;
37527;SDS011;23372;52.050;4.810;2023-04-01T14:13:17;9.40;;;4.90;;
37527;SDS011;23372;52.050;4.810;2023-04-01T14:16:07;9.43;;;5.23;;
37527;SDS011;23372;52.050;4.810;2023-04-01T14:21:34;11.57;;;6.20;;
37527;SDS011;23372;52.050;4.810;2023-04-01T14:32:05;10.07;;;5.70;;
37527;SDS011;23372;52.050;4.810;2023-04-01T14:34:53;9.77;;;5.67;;
37527;SDS011;23372;52.050;4.810;2023-04-01T14:43:06;11.00;;;5.50;;
37527;SDS011;23372;52.050;4.810;2023-04-01T14:45:52;7.23;;;5.10;;
37527;SDS011;23372;52.050;4.810;2023-04-01T14:48:52;8.00;;;5.00;;
37527;SDS011;23372;52.050;4.810;2023-04-01T14:51:28;9.83;;;5.57;;
37527;SDS011;23372;52.050;4.810;2023-04-01T14:59:25;9.87;;;6.43;;
37527;SDS011;23372;52.050;4.810;2023-04-01T15:04:47;10.20;;;6.93;;
37527;SDS011;23372;52.050;4.810;2023-04-01T15:10:18;12.10;;;7.90;;
37527;SDS011;23372;52.050;4.810;2023-04-01T15:32:01;15.43;;;9.60;;
37527;SDS011;23372;52.050;4.810;2023-04-01T15:34:47;15.83;;;9.20;;
37527;SDS011;23372;52.050;4.810;2023-04-01T15:42:55;14.40;;;8.77;;
37527;SDS011;23372;52.050;4.810;2023-04-01T15:48:47;15.87;;;8.43;;
37527;SDS011;23372;52.050;4.810;2023-04-01T16:07:55;11.40;;;7.40;;
37527;SDS011;23372;52.050;4.810;2023-04-01T16:13:31;10.83;;;6.87;;
37527;SDS011;23372;52.050;4.810;2023-04-01T16:16:23;10.03;;;6.60;;
37527;SDS011;23372;52.050;4.810;2023-04-01T16:18:58;13.37;;;7.40;;
37527;SDS011;23372;52.050;4.810;2023-04-01T16:24:24;10.00;;;7.20;;
37527;SDS011;23372;52.050;4.810;2023-04-01T16:27:09;12.70;;;7.50;;
37527;SDS011;23372;52.050;4.810;2023-04-01T16:29:52;11.87;;;7.07;;
37527;SDS011;23372;52.050;4.810;2023-04-01T16:32:50;11.43;;;7.40;;
37527;SDS011;23372;52.050;4.810;2023-04-01T16:43:42;10.40;;;7.17;;
37527;SDS011;23372;52.050;4.810;2023-04-01T16:57:26;8.80;;;5.97;;
37527;SDS011;23372;52.050;4.810;2023-04-01T16:59:54;8.63;;;6.47;;
37527;SDS011;23372;52.050;4.810;2023-04-01T17:02:37;8.50;;;6.00;;
37527;SDS011;23372;52.050;4.810;2023-04-01T17:07:44;7.63;;;5.70;;
37527;SDS011;23372;52.050;4.810;2023-04-01T17:10:18;16.30;;;12.13;;
37527;SDS011;23372;52.050;4.810;2023-04-01T17:12:59;7.03;;;5.30;;
37527;SDS011;23372;52.050;4.810;2023-04-01T17:15:36;7.53;;;5.07;;
37527;SDS011;23372;52.050;4.810;2023-04-01T17:18:14;9.17;;;7.13;;
37527;SDS011;23372;52.050;4.810;2023-04-01T17:20:59;22.37;;;18.53;;
37527;SDS011;23372;52.050;4.810;2023-04-01T17:23:34;7.37;;;5.27;;
37527;SDS011;23372;52.050;4.810;2023-04-01T17:31:48;7.53;;;5.63;;
37527;SDS011;23372;52.050;4.810;2023-04-01T17:43:02;6.33;;;4.03;;
37527;SDS011;23372;52.050;4.810;2023-04-01T17:45:25;5.03;;;3.63;;
37527;SDS011;23372;52.050;4.810;2023-04-01T17:48:08;7.63;;;5.83;;
37527;SDS011;23372;52.050;4.810;2023-04-01T18:02:12;7.73;;;5.40;;
37527;SDS011;23372;52.050;4.810;2023-04-01T18:15:09;4.73;;;4.20;;
37527;SDS011;23372;52.050;4.810;2023-04-01T18:20:43;6.03;;;4.87;;
37527;SDS011;23372;52.050;4.810;2023-04-01T18:23:23;6.63;;;4.93;;
37527;SDS011;23372;52.050;4.810;2023-04-01T18:26:11;7.27;;;5.93;;
37527;SDS011;23372;52.050;4.810;2023-04-01T18:28:54;6.28;;;5.30;;
37527;SDS011;23372;52.050;4.810;2023-04-01T18:31:24;6.73;;;5.23;;
37527;SDS011;23372;52.050;4.810;2023-04-01T18:34:14;5.60;;;4.20;;
37527;SDS011;23372;52.050;4.810;2023-04-01T18:36:51;5.30;;;4.00;;
37527;SDS011;23372;52.050;4.810;2023-04-01T18:39:22;4.70;;;3.80;;
37527;SDS011;23372;52.050;4.810;2023-04-01T18:50:30;5.27;;;4.23;;
37527;SDS011;23372;52.050;4.810;2023-04-01T18:55:52;7.10;;;4.40;;
37527;SDS011;23372;52.050;4.810;2023-04-01T18:58:46;8.17;;;5.03;;
37527;SDS011;23372;52.050;4.810;2023-04-01T19:04:39;8.23;;;5.10;;
37527;SDS011;23372;52.050;4.810;2023-04-01T19:10:11;10.20;;;5.50;;
37527;SDS011;23372;52.050;4.810;2023-04-01T19:18:34;6.93;;;4.93;;
37527;SDS011;23372;52.050;4.810;2023-04-01T19:32:42;9.17;;;6.30;;
37527;SDS011;23372;52.050;4.810;2023-04-01T19:38:12;8.77;;;6.20;;
37527;SDS011;23372;52.050;4.810;2023-04-01T19:49:02;11.37;;;7.20;;
37527;SDS011;23372;52.050;4.810;2023-04-01T19:52:04;10.37;;;7.97;;
37527;SDS011;23372;52.050;4.810;2023-04-01T19:57:45;46.20;;;33.20;;
37527;SDS011;23372;52.050;4.810;2023-04-01T20:00:28;34.17;;;24.67;;
37527;SDS011;23372;52.050;4.810;2023-04-01T20:03:03;34.07;;;23.27;;
37527;SDS011;23372;52.050;4.810;2023-04-01T20:08:31;13.40;;;9.43;;
37527;SDS011;23372;52.050;4.810;2023-04-01T20:11:27;13.67;;;9.77;;
37527;SDS011;23372;52.050;4.810;2023-04-01T20:14:10;41.93;;;36.87;;
37527;SDS011;23372;52.050;4.810;2023-04-01T20:19:30;25.07;;;18.87;;
37527;SDS011;23372;52.050;4.810;2023-04-01T20:21:59;10.40;;;7.47;;
37527;SDS011;23372;52.050;4.810;2023-04-01T20:24:37;13.87;;;7.93;;
37527;SDS011;23372;52.050;4.810;2023-04-01T20:27:09;11.70;;;8.13;;
37527;SDS011;23372;52.050;4.810;2023-04-01T20:37:50;15.13;;;12.50;;
37527;SDS011;23372;52.050;4.810;2023-04-01T20:46:01;14.17;;;8.57;;
37527;SDS011;23372;52.050;4.810;2023-04-01T21:00:33;11.30;;;7.57;;
37527;SDS011;23372;52.050;4.810;2023-04-01T21:06:13;9.80;;;7.07;;
37527;SDS011;23372;52.050;4.810;2023-04-01T21:09:00;11.77;;;8.50;;
37527;SDS011;23372;52.050;4.810;2023-04-01T21:11:36;13.50;;;9.47;;
37527;SDS011;23372;52.050;4.810;2023-04-01T21:14:28;14.37;;;8.63;;
37527;SDS011;23372;52.050;4.810;2023-04-01T21:17:08;13.33;;;8.67;;
37527;SDS011;23372;52.050;4.810;2023-04-01T21:19:52;14.23;;;8.13;;
37527;SDS011;23372;52.050;4.810;2023-04-01T21:22:37;14.90;;;8.30;;
37527;SDS011;23372;52.050;4.810;2023-04-01T21:25:28;12.07;;;7.63;;
37527;SDS011;23372;52.050;4.810;2023-04-01T21:30:56;12.53;;;8.10;;
37527;SDS011;23372;52.050;4.810;2023-04-01T21:36:32;10.77;;;6.80;;
37527;SDS011;23372;52.050;4.810;2023-04-01T21:45:21;11.17;;;7.43;;
37527;SDS011;23372;52.050;4.810;2023-04-01T21:48:21;10.10;;;6.80;;
37527;SDS011;23372;52.050;4.810;2023-04-01T21:59:35;11.03;;;7.83;;
37527;SDS011;23372;52.050;4.810;2023-04-01T22:05:10;19.47;;;13.77;;
37527;SDS011;23372;52.050;4.810;2023-04-01T22:13:16;17.17;;;10.97;;
37527;SDS011;23372;52.050;4.810;2023-04-01T22:27:14;13.63;;;8.40;;
37527;SDS011;23372;52.050;4.810;2023-04-01T22:32:52;11.60;;;7.83;;
37527;SDS011;23372;52.050;4.810;2023-04-01T22:38:02;18.37;;;11.70;;
37527;SDS011;23372;52.050;4.810;2023-04-01T22:40:56;16.93;;;10.90;;
37527;SDS011;23372;52.050;4.810;2023-04-01T22:48:52;31.30;;;17.13;;
37527;SDS011;23372;52.050;4.810;2023-04-01T22:51:41;77.57;;;43.77;;
37527;SDS011;23372;52.050;4.810;2023-04-01T22:54:22;15.07;;;9.10;;
37527;SDS011;23372;52.050;4.810;2023-04-01T22:57:00;15.73;;;9.97;;
37527;SDS011;23372;52.050;4.810;2023-04-01T22:59:57;48.83;;;28.57;;
37527;SDS011;23372;52.050;4.810;2023-04-01T23:02:33;22.20;;;13.37;;
37527;SDS011;23372;52.050;4.810;2023-04-01T23:05:03;21.93;;;12.83;;
37527;SDS011;23372;52.050;4.810;2023-04-01T23:07:50;13.77;;;8.83;;
37527;SDS011;23372;52.050;4.810;2023-04-01T23:10:51;15.00;;;8.87;;
37527;SDS011;23372;52.050;4.810;2023-04-01T23:13:38;20.17;;;13.70;;
37527;SDS011;23372;52.050;4.810;2023-04-01T23:16:08;26.97;;;15.00;;
37527;SDS011;23372;52.050;4.810;2023-04-01T23:18:36;23.30;;;13.53;;
37527;SDS011;23372;52.050;4.810;2023-04-01T23:21:15;22.50;;;13.27;;
37527;SDS011;23372;52.050;4.810;2023-04-01T23:26:17;14.67;;;9.43;;
37527;SDS011;23372;52.050;4.810;2023-04-01T23:28:54;27.07;;;15.27;;
37527;SDS011;23372;52.050;4.810;2023-04-01T23:36:39;52.70;;;27.77;;
37527;SDS011;23372;52.050;4.810;2023-04-01T23:39:18;18.83;;;11.73;;
37527;SDS011;23372;52.050;4.810;2023-04-01T23:41:48;33.50;;;19.77;;
37527;SDS011;23372;52.050;4.810;2023-04-01T23:44:15;35.13;;;18.70;;
37527;SDS011;23372;52.050;4.810;2023-04-01T23:46:42;16.10;;;10.20;;
37527;SDS011;23372;52.050;4.810;2023-04-01T23:49:11;22.47;;;11.97;;
37527;SDS011;23372;52.050;4.810;2023-04-01T23:52:00;19.70;;;12.33;;
37527;SDS011;23372;52.050;4.810;2023-04-01T23:54:39;20.87;;;14.53;;
37527;SDS011;23372;52.050;4.810;2023-04-01T23:57:10;15.13;;;10.20;;
37527;SDS011;23372;52.050;4.810;2023-04-01T23:59:38;17.17;;;10.47;;
